sensor_id;sensor_type;location;lat;lon;timestamp;temperature;humidity
21085;DHT22;34247;50.064;19.970;2023-04-05T03:46:04;17.30;20.90
21085;DHT22;34247;50.064;19.970;2023-04-05T03:47:17;17.30;21.00
21085;DHT22;34247;50.064;19.970;2023-04-05T03:48:21;17.30;21.00
21085;DHT22;34247;50.064;19.970;2023-04-05T03:49:25;17.30;21.10
21085;DHT22;34247;50.064;19.970;2023-04-05T03:50:29;17.20;21.00
21085;DHT22;34247;50.064;19.970;2023-04-05T03:51:33;17.30;21.00
21085;DHT22;34247;50.064;19.970;2023-04-05T03:52:39;17.30;21.10
21085;DHT22;34247;50.064;19.970;2023-04-05T03:53:44;17.30;21.10
21085;DHT22;34247;50.064;19.970;2023-04-05T03:54:48;17.30;21.10
21085;DHT22;34247;50.064;19.970;2023-04-05T03:55:52;17.30;21.10
21085;DHT22;34247;50.064;19.970;2023-04-05T03:56:58;17.30;21.00
21085;DHT22;34247;50.064;19.970;2023-04-05T03:58:01;17.30;21.10
21085;DHT22;34247;50.064;19.970;2023-04-05T03:59:10;17.20;21.00
21085;DHT22;34247;50.064;19.970;2023-04-05T04:00:14;17.30;21.10
21085;DHT22;34247;50.064;19.970;2023-04-05T04:01:22;17.30;21.10
21085;DHT22;34247;50.064;19.970;2023-04-05T04:02:26;17.30;21.10
21085;DHT22;34247;50.064;19.970;2023-04-05T04:03:30;17.30;21.10
21085;DHT22;34247;50.064;19.970;2023-04-05T04:04:34;17.30;21.10
21085;DHT22;34247;50.064;19.970;2023-04-05T04:05:43;17.30;21.10
21085;DHT22;34247;50.064;19.970;2023-04-05T04:06:49;17.30;21.10
21085;DHT22;34247;50.064;19.970;2023-04-05T04:07:53;17.30;21.20
21085;DHT22;34247;50.064;19.970;2023-04-05T04:08:57;17.30;21.10
21085;DHT22;34247;50.064;19.970;2023-04-05T04:10:03;17.30;21.10
21085;DHT22;34247;50.064;19.970;2023-04-05T04:11:33;17.30;21.20
21085;DHT22;34247;50.064;19.970;2023-04-05T04:12:38;17.30;21.10
21085;DHT22;34247;50.064;19.970;2023-04-05T04:13:42;17.30;21.20
21085;DHT22;34247;50.064;19.970;2023-04-05T04:14:45;17.30;21.10
21085;DHT22;34247;50.064;19.970;2023-04-05T04:15:49;17.30;21.20
21085;DHT22;34247;50.064;19.970;2023-04-05T04:16:53;17.20;21.20
21085;DHT22;34247;50.064;19.970;2023-04-05T04:17:57;17.30;21.20
21085;DHT22;34247;50.064;19.970;2023-04-05T04:19:01;17.30;21.20
21085;DHT22;34247;50.064;19.970;2023-04-05T04:20:12;17.20;21.20
21085;DHT22;34247;50.064;19.970;2023-04-05T04:21:26;17.20;21.30
21085;DHT22;34247;50.064;19.970;2023-04-05T04:22:34;17.30;21.30
21085;DHT22;34247;50.064;19.970;2023-04-05T04:23:41;17.30;21.20
21085;DHT22;34247;50.064;19.970;2023-04-05T04:24:49;17.30;21.30
21085;DHT22;34247;50.064;19.970;2023-04-05T04:25:53;17.30;21.30
21085;DHT22;34247;50.064;19.970;2023-04-05T04:26:58;17.30;21.30
21085;DHT22;34247;50.064;19.970;2023-04-05T04:28:03;17.30;21.30
21085;DHT22;34247;50.064;19.970;2023-04-05T04:29:11;17.20;21.20
21085;DHT22;34247;50.064;19.970;2023-04-05T04:30:15;17.20;21.30
21085;DHT22;34247;50.064;19.970;2023-04-05T04:31:19;17.20;21.20
21085;DHT22;34247;50.064;19.970;2023-04-05T04:32:28;17.20;21.20
21085;DHT22;34247;50.064;19.970;2023-04-05T04:33:51;17.20;21.30
21085;DHT22;34247;50.064;19.970;2023-04-05T04:34:55;17.20;21.30
21085;DHT22;34247;50.064;19.970;2023-04-05T04:36:06;17.20;21.30
21085;DHT22;34247;50.064;19.970;2023-04-05T04:37:16;17.20;21.40
21085;DHT22;34247;50.064;19.970;2023-04-05T04:38:20;17.20;21.30
21085;DHT22;34247;50.064;19.970;2023-04-05T04:39:28;17.30;21.40
21085;DHT22;34247;50.064;19.970;2023-04-05T04:40:35;17.20;21.40
21085;DHT22;34247;50.064;19.970;2023-04-05T04:41:44;17.30;21.40
21085;DHT22;34247;50.064;19.970;2023-04-05T04:42:49;17.30;21.40
21085;DHT22;34247;50.064;19.970;2023-04-05T04:43:53;17.30;21.40
21085;DHT22;34247;50.064;19.970;2023-04-05T04:45:01;17.30;21.40
21085;DHT22;34247;50.064;19.970;2023-04-05T04:46:09;17.30;21.30
21085;DHT22;34247;50.064;19.970;2023-04-05T04:47:22;17.30;21.30
21085;DHT22;34247;50.064;19.970;2023-04-05T04:48:26;17.30;21.40
21085;DHT22;34247;50.064;19.970;2023-04-05T04:49:30;17.30;21.40
21085;DHT22;34247;50.064;19.970;2023-04-05T04:50:34;17.30;21.40
21085;DHT22;34247;50.064;19.970;2023-04-05T04:51:39;17.30;21.40
21085;DHT22;34247;50.064;19.970;2023-04-05T04:52:45;17.30;21.40
21085;DHT22;34247;50.064;19.970;2023-04-05T04:53:51;17.30;21.40
21085;DHT22;34247;50.064;19.970;2023-04-05T04:54:55;17.30;21.40
21085;DHT22;34247;50.064;19.970;2023-04-05T04:55:59;17.30;21.40
21085;DHT22;34247;50.064;19.970;2023-04-05T04:57:08;17.40;21.40
21085;DHT22;34247;50.064;19.970;2023-04-05T04:58:12;17.30;21.30
21085;DHT22;34247;50.064;19.970;2023-04-05T04:59:16;17.30;21.40
21085;DHT22;34247;50.064;19.970;2023-04-05T05:00:21;17.40;21.40
21085;DHT22;34247;50.064;19.970;2023-04-05T05:01:26;17.30;21.40
21085;DHT22;34247;50.064;19.970;2023-04-05T05:02:30;17.40;21.50
21085;DHT22;34247;50.064;19.970;2023-04-05T05:03:34;17.30;21.40
21085;DHT22;34247;50.064;19.970;2023-04-05T05:04:40;17.40;21.50
21085;DHT22;34247;50.064;19.970;2023-04-05T05:05:47;17.40;21.50
21085;DHT22;34247;50.064;19.970;2023-04-05T05:06:52;17.40;21.40
21085;DHT22;34247;50.064;19.970;2023-04-05T05:07:56;17.40;21.40
21085;DHT22;34247;50.064;19.970;2023-04-05T05:09:00;17.40;21.50
21085;DHT22;34247;50.064;19.970;2023-04-05T05:10:12;17.60;21.70
21085;DHT22;34247;50.064;19.970;2023-04-05T05:11:18;17.70;21.60
21085;DHT22;34247;50.064;19.970;2023-04-05T05:12:22;17.70;21.30
21085;DHT22;34247;50.064;19.970;2023-04-05T05:13:27;17.80;21.20
21085;DHT22;34247;50.064;19.970;2023-04-05T05:14:31;17.80;21.30
21085;DHT22;34247;50.064;19.970;2023-04-05T05:15:37;17.80;21.20
21085;DHT22;34247;50.064;19.970;2023-04-05T05:16:43;17.80;21.20
21085;DHT22;34247;50.064;19.970;2023-04-05T05:17:48;17.80;21.10
21085;DHT22;34247;50.064;19.970;2023-04-05T05:18:58;17.80;21.20
21085;DHT22;34247;50.064;19.970;2023-04-05T05:20:02;17.90;21.20
21085;DHT22;34247;50.064;19.970;2023-04-05T05:21:12;17.90;21.20
21085;DHT22;34247;50.064;19.970;2023-04-05T05:22:17;17.90;21.20
21085;DHT22;34247;50.064;19.970;2023-04-05T05:23:27;18.00;21.10
21085;DHT22;34247;50.064;19.970;2023-04-05T05:24:31;18.10;20.90
21085;DHT22;34247;50.064;19.970;2023-04-05T05:25:35;18.20;20.90
21085;DHT22;34247;50.064;19.970;2023-04-05T05:26:40;18.20;20.80
21085;DHT22;34247;50.064;19.970;2023-04-05T05:27:50;18.30;20.80
21085;DHT22;34247;50.064;19.970;2023-04-05T05:28:54;18.30;20.80
21085;DHT22;34247;50.064;19.970;2023-04-05T05:29:59;18.30;20.80
21085;DHT22;34247;50.064;19.970;2023-04-05T05:31:12;18.40;20.70
21085;DHT22;34247;50.064;19.970;2023-04-05T05:32:17;18.40;20.70
21085;DHT22;34247;50.064;19.970;2023-04-05T05:33:21;18.40;20.60
21085;DHT22;34247;50.064;19.970;2023-04-05T05:34:25;18.50;20.60
21085;DHT22;34247;50.064;19.970;2023-04-05T05:35:30;18.40;20.50
21085;DHT22;34247;50.064;19.970;2023-04-05T05:36:34;18.50;20.60
21085;DHT22;34247;50.064;19.970;2023-04-05T05:37:39;18.50;20.60
21085;DHT22;34247;50.064;19.970;2023-04-05T05:38:44;18.50;20.60
21085;DHT22;34247;50.064;19.970;2023-04-05T05:39:48;18.50;20.60
21085;DHT22;34247;50.064;19.970;2023-04-05T05:40:56;18.60;20.60
21085;DHT22;34247;50.064;19.970;2023-04-05T05:42:00;18.60;20.60
21085;DHT22;34247;50.064;19.970;2023-04-05T05:43:09;18.80;20.50
21085;DHT22;34247;50.064;19.970;2023-04-05T05:44:13;18.80;20.50
21085;DHT22;34247;50.064;19.970;2023-04-05T05:45:18;18.90;20.50
21085;DHT22;34247;50.064;19.970;2023-04-05T05:46:22;19.00;20.50
21085;DHT22;34247;50.064;19.970;2023-04-05T05:47:26;19.10;20.30
21085;DHT22;34247;50.064;19.970;2023-04-05T05:48:30;19.30;20.30
21085;DHT22;34247;50.064;19.970;2023-04-05T05:49:35;19.50;19.90
21085;DHT22;34247;50.064;19.970;2023-04-05T05:50:40;19.60;19.70
21085;DHT22;34247;50.064;19.970;2023-04-05T05:51:44;19.70;19.80
21085;DHT22;34247;50.064;19.970;2023-04-05T05:52:48;19.80;19.90
21085;DHT22;34247;50.064;19.970;2023-04-05T05:53:53;20.00;19.90
21085;DHT22;34247;50.064;19.970;2023-04-05T05:54:57;20.10;19.70
21085;DHT22;34247;50.064;19.970;2023-04-05T05:56:01;20.30;19.50
21085;DHT22;34247;50.064;19.970;2023-04-05T05:57:13;20.40;19.60
21085;DHT22;34247;50.064;19.970;2023-04-05T05:58:18;20.60;19.30
21085;DHT22;34247;50.064;19.970;2023-04-05T05:59:21;20.80;19.10
21085;DHT22;34247;50.064;19.970;2023-04-05T06:00:26;21.00;19.10
21085;DHT22;34247;50.064;19.970;2023-04-05T06:01:30;21.10;18.90
21085;DHT22;34247;50.064;19.970;2023-04-05T06:02:36;21.30;18.80
21085;DHT22;34247;50.064;19.970;2023-04-05T06:03:40;21.50;18.70
21085;DHT22;34247;50.064;19.970;2023-04-05T06:04:44;21.60;18.60
21085;DHT22;34247;50.064;19.970;2023-04-05T06:05:56;21.80;18.20
21085;DHT22;34247;50.064;19.970;2023-04-05T06:07:04;22.00;18.50
21085;DHT22;34247;50.064;19.970;2023-04-05T06:08:10;22.20;18.30
21085;DHT22;34247;50.064;19.970;2023-04-05T06:09:16;22.40;18.20
21085;DHT22;34247;50.064;19.970;2023-04-05T06:10:20;22.50;17.90
21085;DHT22;34247;50.064;19.970;2023-04-05T06:11:24;22.70;17.60
21085;DHT22;34247;50.064;19.970;2023-04-05T06:12:28;22.80;17.20
21085;DHT22;34247;50.064;19.970;2023-04-05T06:13:32;22.90;17.00
21085;DHT22;34247;50.064;19.970;2023-04-05T06:14:37;23.00;16.80
21085;DHT22;34247;50.064;19.970;2023-04-05T06:15:44;23.10;16.70
21085;DHT22;34247;50.064;19.970;2023-04-05T06:16:48;23.20;16.80
21085;DHT22;34247;50.064;19.970;2023-04-05T06:18:03;23.20;16.60
21085;DHT22;34247;50.064;19.970;2023-04-05T06:19:10;23.30;16.60
21085;DHT22;34247;50.064;19.970;2023-04-05T06:20:24;23.30;16.80
21085;DHT22;34247;50.064;19.970;2023-04-05T06:21:33;23.40;16.90
21085;DHT22;34247;50.064;19.970;2023-04-05T06:22:40;23.50;16.40
21085;DHT22;34247;50.064;19.970;2023-04-05T06:23:48;23.60;16.60
21085;DHT22;34247;50.064;19.970;2023-04-05T06:24:52;23.60;16.50
21085;DHT22;34247;50.064;19.970;2023-04-05T06:26:02;23.80;16.20
21085;DHT22;34247;50.064;19.970;2023-04-05T06:27:09;24.00;16.30
21085;DHT22;34247;50.064;19.970;2023-04-05T06:28:13;24.10;16.00
21085;DHT22;34247;50.064;19.970;2023-04-05T06:29:17;24.20;16.10
21085;DHT22;34247;50.064;19.970;2023-04-05T06:30:21;24.40;16.00
21085;DHT22;34247;50.064;19.970;2023-04-05T06:31:28;24.60;15.90
21085;DHT22;34247;50.064;19.970;2023-04-05T06:32:34;24.70;15.80
21085;DHT22;34247;50.064;19.970;2023-04-05T06:33:38;24.90;15.60
21085;DHT22;34247;50.064;19.970;2023-04-05T06:34:42;25.10;15.60
21085;DHT22;34247;50.064;19.970;2023-04-05T06:35:48;25.30;15.40
21085;DHT22;34247;50.064;19.970;2023-04-05T06:36:53;25.50;15.20
21085;DHT22;34247;50.064;19.970;2023-04-05T06:37:58;25.70;15.30
21085;DHT22;34247;50.064;19.970;2023-04-05T06:39:02;26.00;14.20
21085;DHT22;34247;50.064;19.970;2023-04-05T06:40:13;26.20;13.90
21085;DHT22;34247;50.064;19.970;2023-04-05T06:41:17;26.50;14.40
21085;DHT22;34247;50.064;19.970;2023-04-05T06:42:23;26.70;14.60
21085;DHT22;34247;50.064;19.970;2023-04-05T06:43:30;26.90;14.40
21085;DHT22;34247;50.064;19.970;2023-04-05T06:44:34;27.10;14.00
21085;DHT22;34247;50.064;19.970;2023-04-05T06:45:39;27.40;13.30
21085;DHT22;34247;50.064;19.970;2023-04-05T06:46:43;27.60;12.80
21085;DHT22;34247;50.064;19.970;2023-04-05T06:47:48;27.90;12.40
21085;DHT22;34247;50.064;19.970;2023-04-05T06:48:52;28.10;13.00
21085;DHT22;34247;50.064;19.970;2023-04-05T06:49:56;28.20;12.70
21085;DHT22;34247;50.064;19.970;2023-04-05T06:51:02;28.40;12.90
21085;DHT22;34247;50.064;19.970;2023-04-05T06:52:10;28.50;13.10
21085;DHT22;34247;50.064;19.970;2023-04-05T06:53:14;28.80;13.10
21085;DHT22;34247;50.064;19.970;2023-04-05T06:54:20;29.00;13.00
21085;DHT22;34247;50.064;19.970;2023-04-05T06:55:26;29.10;12.90
21085;DHT22;34247;50.064;19.970;2023-04-05T06:56:29;29.30;12.80
21085;DHT22;34247;50.064;19.970;2023-04-05T06:57:34;29.50;12.60
21085;DHT22;34247;50.064;19.970;2023-04-05T06:58:38;29.80;11.10
21085;DHT22;34247;50.064;19.970;2023-04-05T06:59:41;30.00;11.60
21085;DHT22;34247;50.064;19.970;2023-04-05T07:00:45;30.10;11.60
21085;DHT22;34247;50.064;19.970;2023-04-05T07:01:49;30.50;10.50
21085;DHT22;34247;50.064;19.970;2023-04-05T07:02:53;30.70;10.20
21085;DHT22;34247;50.064;19.970;2023-04-05T07:03:57;30.80;10.90
21085;DHT22;34247;50.064;19.970;2023-04-05T07:05:00;30.80;10.80
21085;DHT22;34247;50.064;19.970;2023-04-05T07:06:11;31.00;10.90
21085;DHT22;34247;50.064;19.970;2023-04-05T07:07:15;31.00;11.10
21085;DHT22;34247;50.064;19.970;2023-04-05T07:08:20;31.10;10.90
21085;DHT22;34247;50.064;19.970;2023-04-05T07:09:24;31.30;11.40
21085;DHT22;34247;50.064;19.970;2023-04-05T07:10:29;31.40;11.00
21085;DHT22;34247;50.064;19.970;2023-04-05T07:11:33;31.50;11.10
21085;DHT22;34247;50.064;19.970;2023-04-05T07:12:41;31.70;11.10
21085;DHT22;34247;50.064;19.970;2023-04-05T07:13:45;31.80;11.00
21085;DHT22;34247;50.064;19.970;2023-04-05T07:14:49;31.90;10.90
21085;DHT22;34247;50.064;19.970;2023-04-05T07:16:03;32.10;10.80
21085;DHT22;34247;50.064;19.970;2023-04-05T07:17:13;32.30;10.50
21085;DHT22;34247;50.064;19.970;2023-04-05T07:18:17;32.40;10.50
21085;DHT22;34247;50.064;19.970;2023-04-05T07:19:22;32.60;10.40
21085;DHT22;34247;50.064;19.970;2023-04-05T07:20:26;32.80;10.40
21085;DHT22;34247;50.064;19.970;2023-04-05T07:21:30;32.90;10.30
21085;DHT22;34247;50.064;19.970;2023-04-05T07:22:33;33.10;10.00
21085;DHT22;34247;50.064;19.970;2023-04-05T07:23:39;33.30;9.70
21085;DHT22;34247;50.064;19.970;2023-04-05T07:24:44;33.40;10.00
21085;DHT22;34247;50.064;19.970;2023-04-05T07:25:48;33.60;10.00
21085;DHT22;34247;50.064;19.970;2023-04-05T07:26:53;33.80;9.90
21085;DHT22;34247;50.064;19.970;2023-04-05T07:27:57;34.00;9.70
21085;DHT22;34247;50.064;19.970;2023-04-05T07:29:04;34.20;9.60
21085;DHT22;34247;50.064;19.970;2023-04-05T07:30:12;34.40;8.70
21085;DHT22;34247;50.064;19.970;2023-04-05T07:31:16;34.70;8.80
21085;DHT22;34247;50.064;19.970;2023-04-05T07:32:20;34.80;8.90
21085;DHT22;34247;50.064;19.970;2023-04-05T07:33:27;35.00;8.80
21085;DHT22;34247;50.064;19.970;2023-04-05T07:34:36;35.20;7.60
21085;DHT22;34247;50.064;19.970;2023-04-05T07:35:40;35.40;7.60
21085;DHT22;34247;50.064;19.970;2023-04-05T07:36:46;35.50;8.20
21085;DHT22;34247;50.064;19.970;2023-04-05T07:37:52;35.60;8.30
21085;DHT22;34247;50.064;19.970;2023-04-05T07:38:56;35.70;7.90
21085;DHT22;34247;50.064;19.970;2023-04-05T07:40:00;35.80;7.20
21085;DHT22;34247;50.064;19.970;2023-04-05T07:41:07;35.80;7.90
21085;DHT22;34247;50.064;19.970;2023-04-05T07:42:15;35.90;7.70
21085;DHT22;34247;50.064;19.970;2023-04-05T07:43:22;35.90;7.70
21085;DHT22;34247;50.064;19.970;2023-04-05T07:44:28;36.00;7.80
21085;DHT22;34247;50.064;19.970;2023-04-05T07:45:32;36.00;7.80
21085;DHT22;34247;50.064;19.970;2023-04-05T07:46:36;36.10;7.80
21085;DHT22;34247;50.064;19.970;2023-04-05T07:47:42;36.10;7.80
21085;DHT22;34247;50.064;19.970;2023-04-05T07:48:46;36.20;7.20
21085;DHT22;34247;50.064;19.970;2023-04-05T07:49:53;36.30;8.00
21085;DHT22;34247;50.064;19.970;2023-04-05T07:51:05;36.30;7.70
21085;DHT22;34247;50.064;19.970;2023-04-05T07:52:12;36.40;7.80
21085;DHT22;34247;50.064;19.970;2023-04-05T07:53:22;36.50;7.60
21085;DHT22;34247;50.064;19.970;2023-04-05T07:54:26;36.60;7.60
21085;DHT22;34247;50.064;19.970;2023-04-05T07:55:30;36.70;7.00
21085;DHT22;34247;50.064;19.970;2023-04-05T07:56:36;36.80;7.40
21085;DHT22;34247;50.064;19.970;2023-04-05T07:57:40;36.90;7.40
21085;DHT22;34247;50.064;19.970;2023-04-05T07:58:44;37.00;7.20
21085;DHT22;34247;50.064;19.970;2023-04-05T07:59:49;37.10;6.90
21085;DHT22;34247;50.064;19.970;2023-04-05T08:01:03;37.30;7.10
21085;DHT22;34247;50.064;19.970;2023-04-05T08:02:12;37.40;7.20
21085;DHT22;34247;50.064;19.970;2023-04-05T08:03:27;37.50;7.30
21085;DHT22;34247;50.064;19.970;2023-04-05T08:04:32;37.60;7.30
21085;DHT22;34247;50.064;19.970;2023-04-05T08:05:36;37.70;7.20
21085;DHT22;34247;50.064;19.970;2023-04-05T08:06:40;37.80;6.80
21085;DHT22;34247;50.064;19.970;2023-04-05T08:07:44;37.80;6.80
21085;DHT22;34247;50.064;19.970;2023-04-05T08:08:48;37.80;7.00
21085;DHT22;34247;50.064;19.970;2023-04-05T08:09:53;37.90;7.00
21085;DHT22;34247;50.064;19.970;2023-04-05T08:11:02;37.90;6.60
21085;DHT22;34247;50.064;19.970;2023-04-05T08:12:14;37.90;6.70
21085;DHT22;34247;50.064;19.970;2023-04-05T08:13:19;37.90;6.70
21085;DHT22;34247;50.064;19.970;2023-04-05T08:14:24;37.90;6.90
21085;DHT22;34247;50.064;19.970;2023-04-05T08:15:28;38.00;6.50
21085;DHT22;34247;50.064;19.970;2023-04-05T08:16:32;37.90;6.80
21085;DHT22;34247;50.064;19.970;2023-04-05T08:17:36;37.90;6.70
21085;DHT22;34247;50.064;19.970;2023-04-05T08:18:42;37.90;7.20
21085;DHT22;34247;50.064;19.970;2023-04-05T08:19:46;37.90;6.90
21085;DHT22;34247;50.064;19.970;2023-04-05T08:20:56;37.80;7.20
21085;DHT22;34247;50.064;19.970;2023-04-05T08:22:01;37.70;7.10
21085;DHT22;34247;50.064;19.970;2023-04-05T08:23:15;37.70;6.90
21085;DHT22;34247;50.064;19.970;2023-04-05T08:24:19;37.50;7.20
21085;DHT22;34247;50.064;19.970;2023-04-05T08:25:23;37.40;7.00
21085;DHT22;34247;50.064;19.970;2023-04-05T08:26:28;37.30;6.60
21085;DHT22;34247;50.064;19.970;2023-04-05T08:27:37;37.20;6.50
21085;DHT22;34247;50.064;19.970;2023-04-05T08:28:41;36.90;6.70
21085;DHT22;34247;50.064;19.970;2023-04-05T08:29:45;36.60;6.80
21085;DHT22;34247;50.064;19.970;2023-04-05T08:30:55;36.20;7.00
21085;DHT22;34247;50.064;19.970;2023-04-05T08:32:00;35.90;7.10
21085;DHT22;34247;50.064;19.970;2023-04-05T08:33:07;35.50;7.20
21085;DHT22;34247;50.064;19.970;2023-04-05T08:34:15;35.20;7.20
21085;DHT22;34247;50.064;19.970;2023-04-05T08:35:19;34.90;7.40
21085;DHT22;34247;50.064;19.970;2023-04-05T08:36:23;34.50;7.40
21085;DHT22;34247;50.064;19.970;2023-04-05T08:37:35;34.20;7.50
21085;DHT22;34247;50.064;19.970;2023-04-05T08:38:40;33.80;7.70
21085;DHT22;34247;50.064;19.970;2023-04-05T08:39:44;33.40;7.70
21085;DHT22;34247;50.064;19.970;2023-04-05T08:40:48;33.10;7.80
21085;DHT22;34247;50.064;19.970;2023-04-05T08:42:03;32.70;7.90
21085;DHT22;34247;50.064;19.970;2023-04-05T08:43:56;32.30;8.00
21085;DHT22;34247;50.064;19.970;2023-04-05T08:45:13;31.80;8.30
21085;DHT22;34247;50.064;19.970;2023-04-05T08:46:34;31.40;8.40
21085;DHT22;34247;50.064;19.970;2023-04-05T08:47:39;31.10;8.90
21085;DHT22;34247;50.064;19.970;2023-04-05T08:48:45;31.00;8.90
21085;DHT22;34247;50.064;19.970;2023-04-05T08:49:49;30.70;8.80
21085;DHT22;34247;50.064;19.970;2023-04-05T08:50:53;30.50;9.00
21085;DHT22;34247;50.064;19.970;2023-04-05T08:51:59;30.40;9.20
21085;DHT22;34247;50.064;19.970;2023-04-05T08:53:05;30.30;9.20
21085;DHT22;34247;50.064;19.970;2023-04-05T08:54:17;30.10;9.20
21085;DHT22;34247;50.064;19.970;2023-04-05T08:55:20;29.90;9.70
21085;DHT22;34247;50.064;19.970;2023-04-05T08:56:27;29.70;9.60
21085;DHT22;34247;50.064;19.970;2023-04-05T08:57:38;29.40;9.70
21085;DHT22;34247;50.064;19.970;2023-04-05T08:59:05;29.10;9.60
21085;DHT22;34247;50.064;19.970;2023-04-05T09:00:15;28.80;9.90
21085;DHT22;34247;50.064;19.970;2023-04-05T09:01:20;28.40;9.80
21085;DHT22;34247;50.064;19.970;2023-04-05T09:02:25;28.10;9.80
21085;DHT22;34247;50.064;19.970;2023-04-05T09:03:34;27.90;9.90
21085;DHT22;34247;50.064;19.970;2023-04-05T09:04:42;27.60;10.00
21085;DHT22;34247;50.064;19.970;2023-04-05T09:05:50;27.30;10.10
21085;DHT22;34247;50.064;19.970;2023-04-05T09:06:57;27.10;10.30
21085;DHT22;34247;50.064;19.970;2023-04-05T09:08:04;26.90;10.30
21085;DHT22;34247;50.064;19.970;2023-04-05T09:09:15;26.70;10.40
21085;DHT22;34247;50.064;19.970;2023-04-05T09:10:21;26.60;11.10
21085;DHT22;34247;50.064;19.970;2023-04-05T09:11:26;26.40;10.90
21085;DHT22;34247;50.064;19.970;2023-04-05T09:12:34;26.20;11.10
21085;DHT22;34247;50.064;19.970;2023-04-05T09:13:39;26.20;11.40
21085;DHT22;34247;50.064;19.970;2023-04-05T09:14:42;26.00;11.10
21085;DHT22;34247;50.064;19.970;2023-04-05T09:15:46;25.90;11.50
21085;DHT22;34247;50.064;19.970;2023-04-05T09:16:51;25.70;11.60
21085;DHT22;34247;50.064;19.970;2023-04-05T09:17:58;25.60;11.40
21085;DHT22;34247;50.064;19.970;2023-04-05T09:19:03;25.40;11.40
21085;DHT22;34247;50.064;19.970;2023-04-05T09:20:09;25.20;11.70
21085;DHT22;34247;50.064;19.970;2023-04-05T09:21:14;25.10;12.20
21085;DHT22;34247;50.064;19.970;2023-04-05T09:22:21;25.10;12.50
21085;DHT22;34247;50.064;19.970;2023-04-05T09:23:27;25.00;12.40
21085;DHT22;34247;50.064;19.970;2023-04-05T09:25:43;24.80;12.40
21085;DHT22;34247;50.064;19.970;2023-04-05T09:27:03;24.70;12.20
21085;DHT22;34247;50.064;19.970;2023-04-05T09:28:17;24.70;12.50
21085;DHT22;34247;50.064;19.970;2023-04-05T09:29:30;24.60;12.50
21085;DHT22;34247;50.064;19.970;2023-04-05T09:30:35;24.60;12.70
21085;DHT22;34247;50.064;19.970;2023-04-05T09:31:39;24.50;12.70
21085;DHT22;34247;50.064;19.970;2023-04-05T09:32:46;24.40;12.70
21085;DHT22;34247;50.064;19.970;2023-04-05T09:33:50;24.50;12.90
21085;DHT22;34247;50.064;19.970;2023-04-05T09:34:57;24.50;12.90
21085;DHT22;34247;50.064;19.970;2023-04-05T09:36:03;24.60;13.00
21085;DHT22;34247;50.064;19.970;2023-04-05T09:37:17;24.70;12.90
21085;DHT22;34247;50.064;19.970;2023-04-05T09:38:44;24.70;12.90
21085;DHT22;34247;50.064;19.970;2023-04-05T09:40:01;24.70;12.80
21085;DHT22;34247;50.064;19.970;2023-04-05T09:41:12;24.60;12.70
21085;DHT22;34247;50.064;19.970;2023-04-05T09:42:19;24.50;12.50
21085;DHT22;34247;50.064;19.970;2023-04-05T09:43:43;24.40;13.10
21085;DHT22;34247;50.064;19.970;2023-04-05T09:44:50;24.40;12.70
21085;DHT22;34247;50.064;19.970;2023-04-05T09:46:30;24.30;13.30
21085;DHT22;34247;50.064;19.970;2023-04-05T09:47:36;24.30;12.80
21085;DHT22;34247;50.064;19.970;2023-04-05T09:48:47;24.20;12.60
21085;DHT22;34247;50.064;19.970;2023-04-05T09:49:52;24.10;12.80
21085;DHT22;34247;50.064;19.970;2023-04-05T09:51:16;24.10;12.80
21085;DHT22;34247;50.064;19.970;2023-04-05T09:52:27;24.00;12.90
21085;DHT22;34247;50.064;19.970;2023-04-05T09:53:34;24.00;13.00
21085;DHT22;34247;50.064;19.970;2023-04-05T09:54:41;23.90;12.90
21085;DHT22;34247;50.064;19.970;2023-04-05T09:55:45;23.90;12.90
21085;DHT22;34247;50.064;19.970;2023-04-05T09:56:55;23.80;12.80
21085;DHT22;34247;50.064;19.970;2023-04-05T09:58:01;23.80;12.80
21085;DHT22;34247;50.064;19.970;2023-04-05T09:59:12;23.80;12.90
21085;DHT22;34247;50.064;19.970;2023-04-05T10:00:18;23.70;13.10
21085;DHT22;34247;50.064;19.970;2023-04-05T10:01:27;23.70;13.30
21085;DHT22;34247;50.064;19.970;2023-04-05T10:02:38;23.80;13.20
21085;DHT22;34247;50.064;19.970;2023-04-05T10:03:47;23.80;13.00
21085;DHT22;34247;50.064;19.970;2023-04-05T10:04:52;24.00;13.20
21085;DHT22;34247;50.064;19.970;2023-04-05T10:05:57;24.00;13.10
21085;DHT22;34247;50.064;19.970;2023-04-05T10:07:01;24.00;13.00
21085;DHT22;34247;50.064;19.970;2023-04-05T10:08:20;24.00;13.00
21085;DHT22;34247;50.064;19.970;2023-04-05T10:09:26;23.90;13.50
21085;DHT22;34247;50.064;19.970;2023-04-05T10:10:30;23.80;13.00
21085;DHT22;34247;50.064;19.970;2023-04-05T10:11:41;23.80;13.00
21085;DHT22;34247;50.064;19.970;2023-04-05T10:12:52;23.70;13.10
21085;DHT22;34247;50.064;19.970;2023-04-05T10:14:03;23.70;13.20
21085;DHT22;34247;50.064;19.970;2023-04-05T10:15:15;23.70;13.30
21085;DHT22;34247;50.064;19.970;2023-04-05T10:16:24;23.80;13.50
21085;DHT22;34247;50.064;19.970;2023-04-05T10:20:12;23.80;13.40
21085;DHT22;34247;50.064;19.970;2023-04-05T10:21:24;23.90;13.30
21085;DHT22;34247;50.064;19.970;2023-04-05T10:22:59;24.00;13.50
21085;DHT22;34247;50.064;19.970;2023-04-05T10:24:38;24.00;13.00
21085;DHT22;34247;50.064;19.970;2023-04-05T10:27:20;23.90;13.00
21085;DHT22;34247;50.064;19.970;2023-04-05T10:28:42;23.90;13.00
21085;DHT22;34247;50.064;19.970;2023-04-05T10:30:04;23.80;12.50
21085;DHT22;34247;50.064;19.970;2023-04-05T10:35:14;23.50;12.40
21085;DHT22;34247;50.064;19.970;2023-04-05T10:36:44;23.50;12.50
21085;DHT22;34247;50.064;19.970;2023-04-05T10:39:44;23.30;12.60
21085;DHT22;34247;50.064;19.970;2023-04-05T10:40:53;23.20;12.70
21085;DHT22;34247;50.064;19.970;2023-04-05T10:43:26;23.10;12.80
21085;DHT22;34247;50.064;19.970;2023-04-05T10:44:35;23.10;12.90
21085;DHT22;34247;50.064;19.970;2023-04-05T10:45:43;23.10;12.90
21085;DHT22;34247;50.064;19.970;2023-04-05T10:46:54;23.00;12.90
21085;DHT22;34247;50.064;19.970;2023-04-05T10:49:39;22.90;13.40
21085;DHT22;34247;50.064;19.970;2023-04-05T10:50:50;23.00;14.00
21085;DHT22;34247;50.064;19.970;2023-04-05T10:51:55;23.10;13.90
21085;DHT22;34247;50.064;19.970;2023-04-05T10:53:00;23.10;14.10
21085;DHT22;34247;50.064;19.970;2023-04-05T10:54:18;23.10;14.30
21085;DHT22;34247;50.064;19.970;2023-04-05T10:55:26;23.10;14.80
21085;DHT22;34247;50.064;19.970;2023-04-05T10:56:30;23.20;15.00
21085;DHT22;34247;50.064;19.970;2023-04-05T10:57:36;23.20;15.00
21085;DHT22;34247;50.064;19.970;2023-04-05T10:58:42;23.40;15.10
21085;DHT22;34247;50.064;19.970;2023-04-05T10:59:51;23.40;15.00